Impacts TAF Board
For situational awareness. Not to be used for flight planning purposes.
IDs:

KJFK - New York/Kennedy Int, NY, US

Issued at 1144 UTC 17 Dec 2018
Updated at 1158 UTC 17 Dec 2018
Potential Impact None Slight Moderate High
Time1151Z 17/12Z 17/13Z 17/14Z 17/15Z 17/16Z 17/17Z 17/18Z 17/19Z 17/20Z 17/21Z 17/22Z 17/23Z 18/00Z>>
Type OBS PRVL
  [TEMP]  
PRVL PRVL PRVL PRVL PRVL PRVL PRVL PRVL PRVL PRVL PRVL PRVL
VIS 10 >6 >6 >6 >6 >6 >6 >6 >6 >6 >6 >6 >6 >6
CIG 17 40
  [30]  
40 40 40 40 40 -- -- 45 45 45 -- --
Cover BKN OVC
  [OVC]  
OVC OVC BKN BKN BKN SCT SCT BKN BKN BKN SCT SCT
FltCat MVFR VFR
  [MVFR]  
VFR VFR VFR VFR VFR VFR VFR VFR VFR VFR VFR VFR
WX -- --
  [--]  
-- -- -- -- -- -- -- -- -- -- -- --
WDir 320 320
[320]
320 320 300 300 300 290 290 300 300 300 300 300
WSpd 13 12
  [12]  
12 12 12 12 12 18 18 21 21 21 23 23
WGst -- --
  [--]  
-- -- -- -- -- 25 25 31 31 31 32 32
Raw TAF
KJFK 171144Z 1712/1818 32012KT P6SM SCT015 OVC040
  TEMPO 1712/1713 SCT015 OVC030
  FM171500 30012KT P6SM SCT020 BKN040
  FM171800 29018G25KT P6SM SCT040
  FM172000 30021G31KT P6SM BKN045
  FM172300 30023G32KT P6SM SCT045 SCT250
  FM181000 32021G29KT P6SM SCT250


Raw METAR
KJFK 171151Z 32013KT 10SM BKN017 BKN029 04/02 A2977 RMK AO2 SLP080 60000 70086 T00440022 10044 20033 51001
KJFK 171051Z 32006KT 10SM FEW015 BKN028 04/03 A2977 RMK AO2 SLP079 T00440028
KJFK 170951Z 32010KT 10SM SCT014 OVC027 04/03 A2977 RMK AO2 RAE0853 SLP079 P0000 T00390028
KJFK 170851Z 34012KT 6SM -RA BR SCT011 OVC037 03/03 A2977 RMK AO2 SLP079 P0000 60000 T00330028 50003
KJFK 170838Z 33012KT 6SM -RA BR SCT011 OVC037 03/03 A2977 RMK AO2 P0000 T00330033

METAR Board
Radar Display
Forecast Discussion
For situational awareness. Not to be used for flight planning purposes.